ワルシャワ の空港の天気 - METARとTAF

ワルシャワ・フレデリック・ショパン空港 ( EPWA / WAW ) - ポーランド ワルシャワ
飛行場実況気象(Metar)
観測時間08/11 09:30 CEST (08/11 07:30 UTC)
風向・風速北北東 3m/s
視程10km以上
天気現象
なし
気温25℃
湿度61%
気圧1019hPa
METAREPWA 110730Z 02005KT 360V080 CAVOK 25/17 Q1019 NOSIG
過去の天気等 Google飛行場航空写真 Wunderground天気予報

過去48時間のMETAR

飛行場予報(TAF)
発表時間: 8/11 07:30 CEST (8/11 05:30 UTC)
予報対象時間: 11日8時 CEST ~ 12日8時 CEST
風向・風速北北東 3m/s
視程10km以上
なし
TAF EPWA 110530Z 1106/1206 03006KT CAVOK